createdAt,value
2023-04-02T00:01:36.721Z,14.95
2023-04-02T00:04:08.956Z,13.98
2023-04-02T00:06:40.414Z,15.27
2023-04-02T00:09:13.190Z,17.52
2023-04-02T00:11:42.178Z,14.60
2023-04-02T00:14:19.268Z,15.18
2023-04-02T00:16:45.953Z,14.95
2023-04-02T00:19:19.699Z,13.77
2023-04-02T00:21:46.976Z,12.32
2023-04-02T00:24:17.284Z,13.50
2023-04-02T00:26:49.010Z,15.13
2023-04-02T00:29:16.628Z,14.02
2023-04-02T00:31:48.747Z,13.00
2023-04-02T00:34:23.035Z,17.40
2023-04-02T00:36:50.952Z,13.48
2023-04-02T00:39:23.117Z,15.05
2023-04-02T00:42:06.834Z,16.20
2023-04-02T00:44:37.903Z,15.30
2023-04-02T00:47:12.167Z,12.20
2023-04-02T00:49:40.331Z,14.70
2023-04-02T00:52:10.169Z,15.35
2023-04-02T00:54:47.193Z,14.52
2023-04-02T00:57:20.314Z,13.95
2023-04-02T01:00:07.573Z,15.38
2023-04-02T01:02:38.253Z,13.70
2023-04-02T01:05:22.170Z,12.95
2023-04-02T01:07:57.590Z,14.10
2023-04-02T01:10:36.028Z,13.32
2023-04-02T01:13:07.183Z,16.98
2023-04-02T01:15:39.115Z,13.32
2023-04-02T01:18:33.643Z,12.85
2023-04-02T01:21:09.591Z,14.30
2023-04-02T01:23:35.898Z,15.63
2023-04-02T01:26:23.861Z,17.00
2023-04-02T01:29:13.834Z,13.57
2023-04-02T01:31:40.889Z,12.52
2023-04-02T01:34:15.273Z,12.35
2023-04-02T01:36:51.173Z,12.90
2023-04-02T01:39:53.085Z,13.18
2023-04-02T01:42:32.058Z,13.25
2023-04-02T01:45:05.405Z,13.13
2023-04-02T01:47:33.179Z,13.05
2023-04-02T01:50:26.159Z,15.07
2023-04-02T01:52:55.480Z,11.80
2023-04-02T01:55:45.895Z,15.77
2023-04-02T01:58:13.924Z,15.77
2023-04-02T02:00:51.407Z,15.23
2023-04-02T02:03:19.088Z,15.10
2023-04-02T02:05:46.444Z,14.35
2023-04-02T02:08:40.288Z,11.77
2023-04-02T02:11:08.343Z,10.60
2023-04-02T02:13:34.804Z,12.00
2023-04-02T02:16:02.040Z,14.10
2023-04-02T02:18:29.081Z,12.43
2023-04-02T02:20:58.147Z,11.20
2023-04-02T02:23:24.840Z,11.25
2023-04-02T02:25:51.413Z,11.98
2023-04-02T02:28:33.536Z,9.65
2023-04-02T02:31:03.935Z,10.48
2023-04-02T02:33:39.519Z,13.07
2023-04-02T02:36:08.939Z,11.40
2023-04-02T02:39:01.070Z,10.55
2023-04-02T02:41:35.517Z,10.88
2023-04-02T02:44:24.234Z,10.15
2023-04-02T02:49:28.563Z,9.13
2023-04-02T02:52:03.728Z,6.70
2023-04-02T02:54:32.620Z,10.88
2023-04-02T02:57:03.435Z,10.52
2023-04-02T02:59:30.834Z,10.05
2023-04-02T03:01:58.154Z,11.90
2023-04-02T03:04:25.302Z,11.27
2023-04-02T03:06:53.197Z,10.50
2023-04-02T03:09:31.445Z,9.70
2023-04-02T03:12:15.843Z,9.13
2023-04-02T03:14:54.785Z,8.93
2023-04-02T03:17:26.106Z,8.45
2023-04-02T03:19:57.614Z,9.10
2023-04-02T03:22:27.121Z,11.75
2023-04-02T03:25:01.891Z,11.30
2023-04-02T03:27:31.232Z,9.38
2023-04-02T03:30:03.957Z,10.98
2023-04-02T03:32:33.041Z,9.77
2023-04-02T03:35:03.482Z,9.30
2023-04-02T03:38:00.793Z,11.45
2023-04-02T03:40:31.963Z,11.82
2023-04-02T03:43:04.045Z,9.45
2023-04-02T03:45:37.063Z,9.35
2023-04-02T03:48:10.633Z,11.50
2023-04-02T03:50:47.442Z,8.70
2023-04-02T03:53:13.835Z,12.55
2023-04-02T03:55:41.881Z,8.82
2023-04-02T03:58:18.857Z,11.07
2023-04-02T04:00:51.912Z,9.60
2023-04-02T04:03:24.579Z,9.07
2023-04-02T04:05:53.822Z,9.80
2023-04-02T04:08:42.442Z,9.55
2023-04-02T04:11:14.377Z,10.48
2023-04-02T04:13:54.429Z,10.90
2023-04-02T04:16:27.410Z,9.38
2023-04-02T04:19:03.516Z,9.30
2023-04-02T04:21:31.178Z,7.30
2023-04-02T04:24:03.758Z,8.02
2023-04-02T04:26:57.142Z,7.40
2023-04-02T04:29:47.124Z,9.15
2023-04-02T04:32:32.337Z,8.13
2023-04-02T04:35:26.007Z,6.88
2023-04-02T04:37:58.821Z,7.95
2023-04-02T04:40:36.464Z,11.23
2023-04-02T04:43:15.988Z,10.27
2023-04-02T04:45:55.844Z,9.40
2023-04-02T04:48:50.058Z,9.02
2023-04-02T04:51:24.077Z,8.82
2023-04-02T04:53:52.531Z,8.43
2023-04-02T04:56:22.231Z,7.93
2023-04-02T04:58:50.830Z,7.32
2023-04-02T05:01:23.228Z,7.95
2023-04-02T05:03:58.643Z,6.65
2023-04-02T05:06:52.019Z,8.77
2023-04-02T05:09:24.627Z,6.65
2023-04-02T05:12:10.991Z,6.85
2023-04-02T05:14:50.632Z,7.40
2023-04-02T05:17:21.432Z,8.23
2023-04-02T05:19:53.240Z,6.40
2023-04-02T05:22:22.062Z,6.28
2023-04-02T05:24:53.812Z,7.00
2023-04-02T05:27:29.106Z,6.50
2023-04-02T05:30:10.641Z,7.78
2023-04-02T05:32:42.670Z,9.43
2023-04-02T05:35:15.634Z,8.05
2023-04-02T05:37:42.256Z,4.93
2023-04-02T05:40:44.517Z,4.93
2023-04-02T05:43:15.670Z,4.35
2023-04-02T05:45:44.414Z,8.35
2023-04-02T05:48:19.473Z,6.68
2023-04-02T05:50:49.595Z,7.15
2023-04-02T05:53:29.165Z,5.57
2023-04-02T05:56:00.003Z,5.80
2023-04-02T05:58:36.169Z,10.18
2023-04-02T06:01:24.107Z,6.05
2023-04-02T06:03:56.162Z,7.75
2023-04-02T06:06:43.954Z,6.97
2023-04-02T06:09:19.944Z,5.13
2023-04-02T06:11:49.712Z,6.70
2023-04-02T06:14:16.753Z,7.32
2023-04-02T06:16:44.802Z,7.45
2023-04-02T06:19:17.307Z,5.97
2023-04-02T06:21:49.844Z,6.13
2023-04-02T06:24:20.373Z,8.75
2023-04-02T06:26:52.095Z,8.65
2023-04-02T06:29:28.207Z,7.07
2023-04-02T06:32:02.420Z,6.28
2023-04-02T06:34:30.006Z,8.15
2023-04-02T06:36:59.202Z,7.53
2023-04-02T06:39:27.140Z,6.15
2023-04-02T06:42:13.601Z,7.82
2023-04-02T06:44:40.370Z,6.78
2023-04-02T06:47:13.428Z,9.05
2023-04-02T06:49:51.333Z,9.65
2023-04-02T06:52:50.249Z,5.80
2023-04-02T06:55:45.154Z,7.60
2023-04-02T06:58:11.651Z,8.38
2023-04-02T07:00:43.240Z,6.65
2023-04-02T07:03:17.094Z,6.75
2023-04-02T07:05:43.497Z,9.23
2023-04-02T07:08:09.918Z,8.85
2023-04-02T07:10:37.021Z,6.82
2023-04-02T07:13:03.472Z,8.00
2023-04-02T07:15:30.037Z,6.35
2023-04-02T07:17:59.027Z,7.10
2023-04-02T07:20:37.561Z,5.93
2023-04-02T07:23:04.226Z,7.00
2023-04-02T07:25:30.878Z,8.50
2023-04-02T07:27:57.418Z,6.85
2023-04-02T07:30:24.053Z,6.88
2023-04-02T07:32:51.686Z,5.90
2023-04-02T07:35:18.257Z,7.78
2023-04-02T07:37:44.691Z,5.55
2023-04-02T07:40:20.506Z,6.70
2023-04-02T07:42:46.914Z,5.43
2023-04-02T07:45:13.850Z,8.30
2023-04-02T07:47:40.809Z,5.10
2023-04-02T07:50:08.536Z,4.75
2023-04-02T07:52:42.545Z,5.78
2023-04-02T07:55:13.491Z,5.05
2023-04-02T07:57:50.493Z,6.95
2023-04-02T08:00:17.735Z,6.88
2023-04-02T08:02:44.399Z,5.85
2023-04-02T08:05:11.112Z,6.55
2023-04-02T08:07:38.983Z,5.03
2023-04-02T08:10:06.997Z,7.45
2023-04-02T08:12:33.454Z,6.35
2023-04-02T08:14:59.963Z,6.13
2023-04-02T08:17:31.258Z,7.53
2023-04-02T08:20:01.000Z,6.57
2023-04-02T08:22:28.796Z,6.25
2023-04-02T08:24:56.348Z,5.60
2023-04-02T08:27:24.342Z,7.10
2023-04-02T08:29:51.184Z,6.72
2023-04-02T08:32:18.111Z,10.02
2023-04-02T08:34:45.460Z,8.43
2023-04-02T08:37:12.567Z,8.07
2023-04-02T08:39:40.031Z,6.00
2023-04-02T08:42:38.249Z,7.20
2023-04-02T08:45:38.300Z,9.68
2023-04-02T08:48:06.441Z,7.57
2023-04-02T08:50:35.443Z,6.72
2023-04-02T08:53:07.869Z,5.78
2023-04-02T08:55:42.718Z,6.10
2023-04-02T08:58:28.010Z,6.43
2023-04-02T09:00:55.479Z,5.32
2023-04-02T09:03:31.870Z,7.35
2023-04-02T09:08:26.192Z,5.68
2023-04-02T09:11:09.067Z,4.38
2023-04-02T09:13:41.036Z,4.70
2023-04-02T09:16:12.756Z,7.75
2023-04-02T09:18:39.458Z,5.30
2023-04-02T09:21:21.130Z,5.90
2023-04-02T09:23:48.210Z,5.57
2023-04-02T09:26:41.097Z,4.00
2023-04-02T09:29:13.499Z,6.20
2023-04-02T09:31:50.899Z,5.72
2023-04-02T09:34:31.847Z,3.92
2023-04-02T09:37:07.245Z,5.18
2023-04-02T09:39:34.389Z,4.78
2023-04-02T09:42:06.183Z,4.93
2023-04-02T09:44:32.876Z,3.72
2023-04-02T09:47:03.912Z,5.30
2023-04-02T09:49:33.130Z,5.63
2023-04-02T09:52:09.002Z,6.03
2023-04-02T09:57:23.522Z,4.68
2023-04-02T10:00:41.821Z,5.10
2023-04-02T10:03:32.807Z,4.50
2023-04-02T10:06:15.427Z,5.15
2023-04-02T10:08:43.685Z,4.47
2023-04-02T10:11:30.958Z,6.97
2023-04-02T10:14:06.570Z,5.25
2023-04-02T10:16:44.837Z,5.25
2023-04-02T10:19:36.738Z,5.35
2023-04-02T10:22:12.817Z,4.85
2023-04-02T10:24:39.719Z,5.85
2023-04-02T10:27:29.547Z,5.03
2023-04-02T10:30:21.111Z,6.05
2023-04-02T10:33:38.705Z,5.88
2023-04-02T10:36:35.605Z,4.10
2023-04-02T10:39:08.421Z,4.97
2023-04-02T10:41:46.827Z,4.78
2023-04-02T10:44:33.416Z,3.15
2023-04-02T10:47:19.772Z,4.60
2023-04-02T10:49:46.339Z,3.80
2023-04-02T10:52:21.593Z,5.03
2023-04-02T10:54:47.955Z,5.32
2023-04-02T10:57:32.640Z,4.50
2023-04-02T11:00:09.295Z,5.43
2023-04-02T11:02:49.474Z,5.32
2023-04-02T11:05:45.289Z,5.63
2023-04-02T11:08:51.285Z,4.15
2023-04-02T11:11:21.447Z,4.32
2023-04-02T11:13:58.973Z,5.68
2023-04-02T11:16:25.635Z,5.30
2023-04-02T11:19:17.178Z,6.78
2023-04-02T11:22:01.469Z,3.50
2023-04-02T11:24:34.408Z,2.80
2023-04-02T11:27:11.099Z,4.35
2023-04-02T11:29:39.533Z,3.58
2023-04-02T11:32:25.179Z,5.38
2023-04-02T11:35:06.341Z,3.97
2023-04-02T11:37:37.360Z,3.08
2023-04-02T11:40:15.766Z,4.45
2023-04-02T11:42:44.006Z,4.38
2023-04-02T11:45:28.706Z,4.18
2023-04-02T11:48:01.342Z,4.35
2023-04-02T11:50:39.564Z,8.85
2023-04-02T11:53:21.554Z,2.85
2023-04-02T11:55:54.001Z,4.53
2023-04-02T11:58:27.473Z,5.68
2023-04-02T12:01:14.710Z,4.50
2023-04-02T12:04:05.621Z,4.25
2023-04-02T12:06:49.228Z,5.00
2023-04-02T12:09:19.668Z,4.18
2023-04-02T12:11:47.410Z,5.03
2023-04-02T12:14:41.540Z,5.53
2023-04-02T12:17:16.264Z,4.10
2023-04-02T12:19:48.094Z,5.50
2023-04-02T12:22:19.470Z,4.10
2023-04-02T12:24:47.584Z,3.92
2023-04-02T12:27:27.612Z,4.70
2023-04-02T12:29:56.031Z,5.03
2023-04-02T12:32:29.893Z,3.17
2023-04-02T12:34:58.076Z,5.43
2023-04-02T12:37:27.280Z,7.10
2023-04-02T12:40:01.204Z,3.35
2023-04-02T12:42:37.585Z,4.65
2023-04-02T12:45:06.792Z,3.63
2023-04-02T12:47:33.301Z,3.63
2023-04-02T12:50:00.762Z,5.43
2023-04-02T12:52:28.930Z,4.72
2023-04-02T12:55:00.718Z,4.20
2023-04-02T12:57:31.729Z,3.40
2023-04-02T13:00:06.115Z,4.68
2023-04-02T13:02:44.581Z,5.63
2023-04-02T13:05:11.818Z,5.95
2023-04-02T13:07:38.590Z,5.45
2023-04-02T13:10:23.124Z,5.43
2023-04-02T13:12:55.419Z,5.15
2023-04-02T13:15:23.900Z,4.68
2023-04-02T13:18:02.591Z,6.68
2023-04-02T13:20:39.206Z,5.25
2023-04-02T13:23:31.319Z,4.75
2023-04-02T13:26:10.892Z,4.25
2023-04-02T13:28:37.533Z,2.40
2023-04-02T13:31:04.095Z,3.08
2023-04-02T13:33:30.555Z,4.30
2023-04-02T13:35:57.026Z,3.90
2023-04-02T13:38:23.484Z,3.78
2023-04-02T13:40:51.290Z,3.60
2023-04-02T13:43:19.731Z,4.47
2023-04-02T13:45:52.072Z,3.08
2023-04-02T13:48:18.707Z,3.25
2023-04-02T13:50:46.216Z,3.03
2023-04-02T13:53:28.358Z,2.97
2023-04-02T13:55:54.984Z,3.95
2023-04-02T13:58:21.689Z,4.20
2023-04-02T14:00:48.281Z,3.95
2023-04-02T14:03:21.755Z,4.25
2023-04-02T14:05:58.078Z,4.15
2023-04-02T14:08:53.330Z,4.35
2023-04-02T14:12:04.716Z,4.15
2023-04-02T14:14:56.153Z,4.28
2023-04-02T14:17:56.496Z,3.65
2023-04-02T14:21:04.073Z,4.22
2023-04-02T14:23:33.455Z,4.47
2023-04-02T14:26:11.942Z,4.35
2023-04-02T14:28:50.615Z,5.22
2023-04-02T14:31:23.132Z,6.15
2023-04-02T14:33:57.739Z,3.67
2023-04-02T14:36:42.700Z,4.28
2023-04-02T14:39:24.498Z,3.30
2023-04-02T14:42:05.105Z,4.90
2023-04-02T14:44:37.021Z,3.47
2023-04-02T14:47:33.995Z,3.92
2023-04-02T14:50:11.988Z,3.90
2023-04-02T14:52:41.834Z,5.13
2023-04-02T14:55:32.821Z,3.28
2023-04-02T14:58:02.423Z,4.80
2023-04-02T15:00:41.814Z,3.50
2023-04-02T15:03:32.382Z,3.40
2023-04-02T15:06:06.842Z,4.70
2023-04-02T15:09:08.311Z,3.35
2023-04-02T15:11:43.471Z,3.55
2023-04-02T15:14:17.140Z,3.78
2023-04-02T15:16:43.961Z,5.07
2023-04-02T15:19:13.353Z,4.45
2023-04-02T15:21:58.947Z,4.07
2023-04-02T15:24:50.601Z,3.20
2023-04-02T15:27:49.540Z,2.80
2023-04-02T15:30:22.071Z,4.35
2023-04-02T15:32:49.316Z,3.67
2023-04-02T15:35:55.619Z,3.60
2023-04-02T15:38:37.350Z,3.45
2023-04-02T15:41:23.543Z,4.97
2023-04-02T15:44:14.712Z,3.88
2023-04-02T15:46:59.431Z,6.57
2023-04-02T15:49:54.885Z,5.88
2023-04-02T15:52:30.348Z,4.60
2023-04-02T15:57:54.652Z,5.13
2023-04-02T16:00:28.354Z,3.88
2023-04-02T16:03:20.970Z,4.07
2023-04-02T16:06:16.862Z,3.83
2023-04-02T16:09:14.376Z,4.53
2023-04-02T16:11:40.787Z,5.25
2023-04-02T16:14:17.213Z,4.40
2023-04-02T16:16:46.710Z,3.45
2023-04-02T16:19:28.927Z,3.90
2023-04-02T16:22:26.930Z,3.72
2023-04-02T16:25:00.280Z,4.43
2023-04-02T16:27:37.720Z,2.88
2023-04-02T16:30:29.957Z,4.00
2023-04-02T16:33:31.845Z,4.90
2023-04-02T16:36:08.929Z,3.78
2023-04-02T16:38:50.595Z,5.95
2023-04-02T16:44:20.622Z,4.07
2023-04-02T16:46:56.174Z,3.75
2023-04-02T16:52:21.306Z,4.55
2023-04-02T16:57:58.912Z,2.53
2023-04-02T17:00:36.997Z,4.78
2023-04-02T17:03:37.492Z,3.83
2023-04-02T17:08:59.696Z,3.97
2023-04-02T17:11:47.545Z,2.83
2023-04-02T17:14:41.250Z,4.80
2023-04-02T17:17:11.523Z,4.57
2023-04-02T17:19:39.417Z,3.67
2023-04-02T17:22:06.276Z,4.32
2023-04-02T17:24:39.374Z,4.05
2023-04-02T17:27:29.146Z,4.28
2023-04-02T17:30:01.272Z,4.68
2023-04-02T17:32:31.445Z,7.15
2023-04-02T17:35:12.568Z,4.50
2023-04-02T17:37:43.376Z,3.42
2023-04-02T17:40:26.252Z,4.60
2023-04-02T17:43:05.445Z,2.75
2023-04-02T17:46:05.270Z,5.25
2023-04-02T17:48:45.390Z,4.95
2023-04-02T17:51:11.756Z,4.57
2023-04-02T17:54:07.341Z,5.13
2023-04-02T17:56:52.649Z,4.82
2023-04-02T17:59:28.228Z,3.92
2023-04-02T18:02:12.913Z,4.68
2023-04-02T18:05:20.711Z,3.80
2023-04-02T18:08:05.740Z,5.82
2023-04-02T18:10:39.673Z,3.97
2023-04-02T18:13:23.946Z,3.97
2023-04-02T18:16:02.166Z,4.25
2023-04-02T18:18:58.908Z,3.13
2023-04-02T18:21:39.421Z,6.95
2023-04-02T18:24:10.451Z,3.42
2023-04-02T18:27:03.192Z,4.25
2023-04-02T18:29:41.989Z,7.70
2023-04-02T18:32:34.214Z,5.45
2023-04-02T18:35:03.504Z,5.00
2023-04-02T18:37:39.422Z,6.13
2023-04-02T18:40:24.485Z,5.05
2023-04-02T18:43:28.635Z,4.57
2023-04-02T18:45:59.375Z,6.03
2023-04-02T18:48:56.607Z,4.10
2023-04-02T18:51:25.135Z,6.63
2023-04-02T18:53:57.147Z,4.63
2023-04-02T18:56:24.587Z,7.18
2023-04-02T18:58:56.748Z,5.28
2023-04-02T19:01:28.126Z,5.22
2023-04-02T19:04:04.545Z,5.55
2023-04-02T19:06:42.061Z,6.50
2023-04-02T19:09:18.128Z,7.95
2023-04-02T19:11:44.514Z,8.45
2023-04-02T19:14:14.241Z,7.38
2023-04-02T19:17:02.581Z,4.50
2023-04-02T19:19:37.948Z,3.85
2023-04-02T19:22:41.743Z,8.25
2023-04-02T19:25:30.407Z,5.35
2023-04-02T19:28:07.719Z,7.88
2023-04-02T19:30:57.289Z,6.55
2023-04-02T19:33:44.299Z,5.43
2023-04-02T19:36:38.792Z,5.28
2023-04-02T19:39:28.161Z,5.28
2023-04-02T19:42:03.437Z,2.55
2023-04-02T19:44:29.976Z,4.75
2023-04-02T19:46:56.561Z,4.47
2023-04-02T19:49:33.731Z,3.72
2023-04-02T19:52:00.397Z,3.65
2023-04-02T19:54:26.850Z,4.63
2023-04-02T19:56:53.445Z,4.00
2023-04-02T19:59:20.006Z,4.75
2023-04-02T20:01:46.924Z,6.78
2023-04-02T20:04:13.839Z,3.55
2023-04-02T20:06:40.402Z,4.25
2023-04-02T20:09:08.497Z,3.90
2023-04-02T20:11:36.788Z,6.65
2023-04-02T20:14:03.584Z,4.15
2023-04-02T20:16:32.690Z,3.42
2023-04-02T20:18:59.170Z,4.40
2023-04-02T20:21:26.726Z,3.55
2023-04-02T20:23:54.395Z,3.97
2023-04-02T20:26:22.499Z,3.65
2023-04-02T20:28:49.012Z,4.78
2023-04-02T20:31:18.146Z,3.92
2023-04-02T20:33:45.274Z,3.05
2023-04-02T20:36:16.321Z,4.57
2023-04-02T20:38:43.478Z,6.07
2023-04-02T20:41:09.979Z,3.95
2023-04-02T20:43:37.573Z,3.03
2023-04-02T20:46:05.644Z,3.63
2023-04-02T20:48:33.110Z,3.78
2023-04-02T20:51:00.558Z,3.13
2023-04-02T20:53:29.154Z,5.35
2023-04-02T20:56:06.380Z,2.92
2023-04-02T20:58:34.218Z,3.75
2023-04-02T21:01:17.179Z,3.90
2023-04-02T21:03:43.872Z,5.63
2023-04-02T21:06:15.793Z,2.97
2023-04-02T21:08:42.878Z,4.30
2023-04-02T21:11:10.028Z,2.70
2023-04-02T21:13:37.071Z,2.95
2023-04-02T21:16:05.218Z,3.25
2023-04-02T21:18:32.712Z,4.15
2023-04-02T21:21:01.381Z,3.22
2023-04-02T21:23:29.083Z,4.13
2023-04-02T21:25:58.595Z,5.10
2023-04-02T21:28:25.351Z,3.88
2023-04-02T21:30:51.821Z,3.60
2023-04-02T21:33:18.244Z,4.80
2023-04-02T21:35:44.700Z,4.22
2023-04-02T21:38:11.129Z,4.72
2023-04-02T21:40:37.522Z,3.83
2023-04-02T21:43:03.938Z,4.75
2023-04-02T21:45:30.438Z,3.47
2023-04-02T21:47:56.882Z,3.83
2023-04-02T21:50:23.425Z,5.22
2023-04-02T21:52:49.901Z,3.92
2023-04-02T21:55:16.359Z,4.22
2023-04-02T21:57:42.843Z,5.25
2023-04-02T22:00:12.327Z,3.58
2023-04-02T22:02:39.063Z,3.53
2023-04-02T22:05:06.130Z,4.20
2023-04-02T22:07:32.564Z,3.40
2023-04-02T22:09:59.009Z,2.95
2023-04-02T22:12:25.482Z,2.70
2023-04-02T22:14:51.883Z,4.97
2023-04-02T22:17:18.306Z,4.75
2023-04-02T22:19:44.757Z,3.67
2023-04-02T22:22:11.181Z,3.33
2023-04-02T22:24:37.579Z,2.28
2023-04-02T22:27:04.011Z,2.60
2023-04-02T22:29:30.392Z,4.70
2023-04-02T22:31:56.827Z,2.40
2023-04-02T22:34:23.327Z,4.43
2023-04-02T22:36:49.879Z,3.03
2023-04-02T22:39:17.074Z,3.42
2023-04-02T22:41:43.644Z,3.97
2023-04-02T22:44:14.145Z,3.22
2023-04-02T22:46:40.679Z,3.38
2023-04-02T22:49:07.275Z,3.88
2023-04-02T22:51:33.848Z,2.70
2023-04-02T22:54:00.235Z,3.00
2023-04-02T22:56:32.033Z,2.88
2023-04-02T22:58:58.822Z,2.50
2023-04-02T23:01:32.192Z,4.22
2023-04-02T23:03:58.646Z,3.17
2023-04-02T23:06:25.379Z,2.70
2023-04-02T23:08:52.284Z,3.20
2023-04-02T23:11:24.691Z,3.30
2023-04-02T23:13:52.507Z,5.47
2023-04-02T23:16:19.725Z,3.78
2023-04-02T23:18:48.076Z,2.80
2023-04-02T23:21:15.561Z,2.72
2023-04-02T23:23:42.002Z,3.35
2023-04-02T23:26:13.727Z,2.92
2023-04-02T23:28:40.644Z,3.70
2023-04-02T23:31:09.322Z,3.67
2023-04-02T23:33:35.736Z,4.88
2023-04-02T23:36:17.629Z,3.80
2023-04-02T23:38:44.111Z,2.70
2023-04-02T23:41:14.722Z,4.22
2023-04-02T23:43:41.377Z,3.80
2023-04-02T23:46:07.782Z,4.88
2023-04-02T23:48:34.289Z,2.88
2023-04-02T23:51:00.832Z,2.85
2023-04-02T23:53:27.281Z,3.75
2023-04-02T23:55:53.693Z,3.83
2023-04-02T23:58:20.220Z,2.72
